Time;durP1;ratioP1;P1;durP2;ratioP2;P2;SDS_P1;SDS_P2;PMS_P1;PMS_P2;Temp;Humidity;BMP_temperature;BMP_pressure;BME280_temperature;BME280_humidity;BME280_pressure;Samples;Min_cycle;Max_cycle;Signal;HPM_P1;HPM_P2
2022/06/06 00:01:00;;;;;;;;;;;11.80;99.90;;;;;;5114510;28;20273;-78
2022/06/06 00:03:27;;;;;;;;;;;11.80;99.90;;;;;;5114971;28;19916;-79
2022/06/06 00:05:53;;;;;;;;;;;11.80;99.90;;;;;;5114747;28;20395;-79
2022/06/06 00:08:19;;;;;;;;;;;11.80;99.90;;;;;;5114457;28;19935;-79
2022/06/06 00:10:45;;;;;;;;;;;11.80;99.90;;;;;;5114762;28;19976;-79
2022/06/06 00:13:12;;;;;;;;;;;11.80;99.90;;;;;;5114334;28;19950;-79
2022/06/06 00:15:37;;;;;;;;;;;11.80;99.90;;;;;;5114947;28;20260;-79
2022/06/06 00:18:03;;;;;;;;;;;11.80;99.90;;;;;;5113919;28;19908;-80
2022/06/06 00:20:30;;;;;;;;;;;11.80;99.90;;;;;;5114815;28;19927;-79
2022/06/06 00:22:56;;;;;;;;;;;11.80;99.90;;;;;;5114595;28;20272;-79
2022/06/06 00:25:22;;;;;;;;;;;11.80;99.90;;;;;;5113770;28;20353;-79
2022/06/06 00:27:47;;;;;;;;;;;11.80;99.90;;;;;;5114497;28;19908;-79
2022/06/06 00:30:13;;;;;;;;;;;11.80;99.90;;;;;;5095780;28;20028;-79
2022/06/06 00:35:23;;;;;;;;;;;11.80;99.90;;;;;;5113703;28;20371;-79
2022/06/06 00:37:48;;;;;;;;;;;11.80;99.90;;;;;;5114422;28;19907;-80
2022/06/06 00:40:17;;;;;;;;;;;11.80;99.90;;;;;;5113886;28;19915;-80
2022/06/06 00:42:43;;;;;;;;;;;11.80;99.90;;;;;;5114252;28;19915;-79
2022/06/06 00:45:14;;;;;;;;;;;11.70;99.90;;;;;;5113717;28;19908;-80
2022/06/06 00:47:41;;;;;;;;;;;11.80;99.90;;;;;;5114279;28;19918;-79
2022/06/06 00:50:12;;;;;;;;;;;11.80;99.90;;;;;;5113935;28;20387;-79
2022/06/06 00:52:39;;;;;;;;;;;11.80;99.90;;;;;;5113920;28;19961;-80
2022/06/06 00:55:08;;;;;;;;;;;11.80;99.90;;;;;;5113559;28;19957;-78
2022/06/06 00:57:35;;;;;;;;;;;11.80;99.90;;;;;;5095773;28;19920;-79
2022/06/06 01:00:03;;;;;;;;;;;11.90;99.90;;;;;;5113870;28;19908;-77
2022/06/06 01:02:29;;;;;;;;;;;11.80;99.90;;;;;;5113875;28;19961;-79
2022/06/06 01:04:55;;;;;;;;;;;11.90;99.90;;;;;;5113960;28;19912;-79
2022/06/06 01:07:20;;;;;;;;;;;11.90;99.90;;;;;;5113364;28;20011;-78
2022/06/06 01:09:46;;;;;;;;;;;11.90;99.90;;;;;;5113872;28;20332;-79
2022/06/06 01:12:14;;;;;;;;;;;11.90;99.90;;;;;;5113573;28;19908;-79
2022/06/06 01:14:50;;;;;;;;;;;11.90;99.90;;;;;;5113606;28;19943;-78
2022/06/06 01:17:18;;;;;;;;;;;11.90;99.90;;;;;;5113059;28;19908;-78
2022/06/06 01:19:56;;;;;;;;;;;11.80;99.90;;;;;;5095155;28;19920;-79
2022/06/06 01:22:36;;;;;;;;;;;11.90;99.90;;;;;;5113090;28;19915;-78
2022/06/06 01:25:04;;;;;;;;;;;11.90;99.90;;;;;;5113179;28;19995;-78
2022/06/06 01:27:48;;;;;;;;;;;11.90;99.90;;;;;;5113706;28;19912;-78
2022/06/06 01:30:15;;;;;;;;;;;11.90;99.90;;;;;;5112967;28;20006;-78
2022/06/06 01:32:42;;;;;;;;;;;11.80;99.90;;;;;;5113164;28;19930;-78
2022/06/06 01:35:08;;;;;;;;;;;11.80;99.90;;;;;;5112702;28;20360;-78
2022/06/06 01:37:38;;;;;;;;;;;11.80;99.90;;;;;;5113566;28;19956;-78
2022/06/06 01:40:09;;;;;;;;;;;11.80;99.90;;;;;;5113516;28;19915;-79
2022/06/06 01:42:38;;;;;;;;;;;11.80;99.90;;;;;;5113016;28;20364;-79
2022/06/06 01:45:08;;;;;;;;;;;11.80;99.90;;;;;;5113508;28;19950;-79
2022/06/06 01:47:36;;;;;;;;;;;11.80;99.90;;;;;;5113289;28;20356;-78
2022/06/06 01:50:04;;;;;;;;;;;11.80;99.90;;;;;;5113138;28;19908;-78
2022/06/06 01:52:29;;;;;;;;;;;11.80;99.90;;;;;;5112935;28;19929;-78
2022/06/06 01:54:56;;;;;;;;;;;11.80;99.90;;;;;;5113104;28;19991;-79
2022/06/06 01:57:22;;;;;;;;;;;11.70;99.90;;;;;;5094601;28;19919;-78
2022/06/06 01:59:48;;;;;;;;;;;11.70;99.90;;;;;;5113293;28;19914;-79
2022/06/06 02:02:15;;;;;;;;;;;11.80;99.90;;;;;;5112849;28;19916;-78
2022/06/06 02:04:40;;;;;;;;;;;11.70;99.90;;;;;;5094883;28;20002;-79
2022/06/06 02:07:06;;;;;;;;;;;11.70;99.90;;;;;;5113017;28;20404;-77
2022/06/06 02:09:32;;;;;;;;;;;11.70;99.90;;;;;;5112695;28;19911;-78
2022/06/06 02:11:59;;;;;;;;;;;11.70;99.90;;;;;;5113166;28;19914;-79
2022/06/06 02:14:24;;;;;;;;;;;11.70;99.90;;;;;;5112507;28;19912;-78
2022/06/06 02:16:50;;;;;;;;;;;11.70;99.90;;;;;;5113131;28;20296;-79
2022/06/06 02:19:16;;;;;;;;;;;11.80;99.90;;;;;;5112357;28;19908;-78
2022/06/06 02:21:42;;;;;;;;;;;11.80;99.90;;;;;;5113079;28;20026;-79
2022/06/06 02:24:07;;;;;;;;;;;11.80;99.90;;;;;;5112753;28;19908;-77
2022/06/06 02:26:33;;;;;;;;;;;11.70;99.90;;;;;;5112814;28;19908;-78
2022/06/06 02:28:59;;;;;;;;;;;11.70;99.90;;;;;;5094915;28;19915;-78
2022/06/06 02:31:24;;;;;;;;;;;11.80;99.90;;;;;;5112490;28;19911;-78
2022/06/06 02:33:51;;;;;;;;;;;11.70;99.90;;;;;;5112809;28;20253;-78
2022/06/06 02:36:16;;;;;;;;;;;11.70;99.90;;;;;;5114374;28;19908;-78
2022/06/06 02:38:42;;;;;;;;;;;11.70;99.90;;;;;;5116787;28;19907;-79
2022/06/06 02:41:07;;;;;;;;;;;11.70;99.90;;;;;;5116372;28;20261;-77
2022/06/06 02:43:39;;;;;;;;;;;11.70;99.90;;;;;;5116633;28;19916;-79
2022/06/06 02:46:05;;;;;;;;;;;11.70;99.90;;;;;;5116749;28;19955;-78
2022/06/06 02:48:30;;;;;;;;;;;11.70;99.90;;;;;;5116058;28;19912;-78
2022/06/06 02:50:56;;;;;;;;;;;11.70;99.90;;;;;;5116247;28;19931;-79
2022/06/06 02:53:22;;;;;;;;;;;11.70;99.90;;;;;;5116166;28;19907;-78
2022/06/06 02:55:50;;;;;;;;;;;11.70;99.90;;;;;;5116463;28;19907;-79
2022/06/06 02:58:16;;;;;;;;;;;11.70;99.90;;;;;;5115553;28;20364;-79
2022/06/06 03:00:43;;;;;;;;;;;11.70;99.90;;;;;;5116553;28;19914;-79
2022/06/06 03:03:08;;;;;;;;;;;11.70;99.90;;;;;;5116202;28;19920;-79
2022/06/06 03:05:42;;;;;;;;;;;11.70;99.90;;;;;;5115750;28;20393;-78
2022/06/06 03:08:07;;;;;;;;;;;11.70;99.90;;;;;;5116254;28;19912;-79
2022/06/06 03:10:33;;;;;;;;;;;11.70;99.90;;;;;;5115555;28;20468;-78
2022/06/06 03:13:10;;;;;;;;;;;11.70;99.90;;;;;;5116419;28;19915;-79
2022/06/06 03:15:36;;;;;;;;;;;11.70;99.90;;;;;;5116267;28;20339;-78
2022/06/06 03:20:54;;;;;;;;;;;11.70;99.90;;;;;;5115976;28;19972;-79
2022/06/06 03:23:25;;;;;;;;;;;11.70;99.90;;;;;;5115421;28;19915;-78
2022/06/06 03:25:55;;;;;;;;;;;11.70;99.90;;;;;;5116416;28;19991;-78
2022/06/06 03:28:40;;;;;;;;;;;11.60;99.90;;;;;;5096902;28;19908;-78
2022/06/06 03:31:05;;;;;;;;;;;11.60;99.90;;;;;;5115807;28;19915;-79
2022/06/06 03:33:49;;;;;;;;;;;11.60;99.90;;;;;;5115090;28;19908;-78
2022/06/06 03:36:15;;;;;;;;;;;11.60;99.90;;;;;;5115127;28;19907;-78
2022/06/06 03:38:44;;;;;;;;;;;11.60;99.90;;;;;;5115769;28;19912;-78
2022/06/06 03:41:09;;;;;;;;;;;11.50;99.90;;;;;;5115360;28;20006;-78
2022/06/06 03:43:47;;;;;;;;;;;11.60;99.90;;;;;;5114915;28;20018;-78
2022/06/06 03:46:13;;;;;;;;;;;11.50;99.90;;;;;;5115009;28;20019;-76
2022/06/06 03:48:54;;;;;;;;;;;11.50;99.90;;;;;;5114716;28;19908;-78
2022/06/06 03:51:19;;;;;;;;;;;11.50;99.90;;;;;;5115148;28;19908;-78
2022/06/06 03:53:53;;;;;;;;;;;11.50;99.90;;;;;;5097131;28;20234;-78
2022/06/06 03:56:18;;;;;;;;;;;11.50;99.90;;;;;;5114787;28;19961;-79
2022/06/06 03:58:44;;;;;;;;;;;11.50;99.90;;;;;;5115261;28;19954;-79
2022/06/06 04:01:11;;;;;;;;;;;11.50;99.90;;;;;;5115223;28;19955;-79
2022/06/06 04:03:37;;;;;;;;;;;11.50;99.90;;;;;;5114183;28;19915;-78
2022/06/06 04:06:03;;;;;;;;;;;11.40;99.90;;;;;;5115016;28;19950;-78
2022/06/06 04:08:32;;;;;;;;;;;11.50;99.90;;;;;;5114544;28;19908;-78
2022/06/06 04:11:18;;;;;;;;;;;11.40;99.90;;;;;;5096836;28;19943;-78
2022/06/06 04:13:54;;;;;;;;;;;11.40;99.90;;;;;;5072807;28;20023;-78
2022/06/06 04:16:24;;;;;;;;;;;11.40;99.90;;;;;;5114391;28;19915;-78
2022/06/06 04:18:58;;;;;;;;;;;11.40;99.90;;;;;;5114614;28;19943;-78
2022/06/06 04:21:29;;;;;;;;;;;11.40;99.90;;;;;;5095683;28;19920;-78
2022/06/06 04:24:06;;;;;;;;;;;11.40;99.90;;;;;;5114867;28;19939;-79
2022/06/06 04:26:46;;;;;;;;;;;11.40;99.90;;;;;;5114155;28;19908;-78
2022/06/06 04:29:32;;;;;;;;;;;11.40;99.90;;;;;;5096362;28;19965;-78
2022/06/06 04:32:11;;;;;;;;;;;11.40;99.90;;;;;;5113878;28;19908;-78
2022/06/06 04:34:49;;;;;;;;;;;11.40;99.90;;;;;;5114393;28;20686;-78
2022/06/06 04:37:33;;;;;;;;;;;11.40;99.90;;;;;;5114351;28;19921;-79
2022/06/06 04:40:01;;;;;;;;;;;11.40;99.90;;;;;;5114408;28;19947;-78
2022/06/06 04:42:53;;;;;;;;;;;11.40;99.90;;;;;;5113704;28;19912;-78
2022/06/06 04:45:24;;;;;;;;;;;11.40;99.90;;;;;;5109757;28;19944;-78
2022/06/06 04:47:50;;;;;;;;;;;11.40;99.90;;;;;;5114590;28;19907;-79
2022/06/06 04:50:18;;;;;;;;;;;11.40;99.90;;;;;;5114083;28;20264;-76
2022/06/06 04:52:46;;;;;;;;;;;11.40;99.90;;;;;;5113999;28;19915;-78
2022/06/06 04:55:13;;;;;;;;;;;11.40;99.90;;;;;;5114064;28;19908;-78
2022/06/06 04:57:45;;;;;;;;;;;11.40;99.90;;;;;;5113471;28;20345;-78
2022/06/06 05:00:10;;;;;;;;;;;11.40;99.90;;;;;;5113124;28;19911;-78
2022/06/06 05:02:36;;;;;;;;;;;11.40;99.90;;;;;;5113164;28;19911;-78
2022/06/06 05:05:02;;;;;;;;;;;11.40;99.90;;;;;;5113604;28;19919;-78
2022/06/06 05:07:45;;;;;;;;;;;11.40;99.90;;;;;;5112848;28;19908;-78
2022/06/06 05:10:11;;;;;;;;;;;11.40;99.90;;;;;;5113700;28;19908;-79
2022/06/06 05:12:50;;;;;;;;;;;11.40;99.90;;;;;;5112893;28;19908;-78
2022/06/06 05:15:34;;;;;;;;;;;11.40;99.90;;;;;;5113719;28;20370;-78
2022/06/06 05:18:26;;;;;;;;;;;11.40;99.90;;;;;;5113728;28;19911;-78
2022/06/06 05:20:54;;;;;;;;;;;11.40;99.90;;;;;;5081388;28;20375;-78
2022/06/06 05:23:22;;;;;;;;;;;11.40;99.90;;;;;;5112901;28;19922;-76
2022/06/06 05:25:51;;;;;;;;;;;11.40;99.90;;;;;;5113475;28;19912;-78
2022/06/06 05:28:19;;;;;;;;;;;11.40;99.90;;;;;;5095241;28;19908;-78
2022/06/06 05:30:53;;;;;;;;;;;11.40;99.90;;;;;;5112995;28;19915;-78
2022/06/06 05:33:21;;;;;;;;;;;11.40;99.90;;;;;;5113545;28;20471;-77
2022/06/06 05:35:55;;;;;;;;;;;11.40;99.90;;;;;;5113129;28;20306;-78
2022/06/06 05:38:31;;;;;;;;;;;11.50;99.90;;;;;;5113331;28;20401;-76
2022/06/06 05:41:02;;;;;;;;;;;11.50;99.90;;;;;;5113222;28;20383;-78
2022/06/06 05:43:49;;;;;;;;;;;11.50;99.90;;;;;;5112767;28;19912;-78
2022/06/06 05:46:33;;;;;;;;;;;11.60;99.90;;;;;;5113311;28;19916;-78
2022/06/06 05:49:14;;;;;;;;;;;11.60;99.90;;;;;;5095248;28;20295;-78
2022/06/06 05:51:58;;;;;;;;;;;11.60;99.90;;;;;;5113009;28;19912;-79
2022/06/06 05:54:27;;;;;;;;;;;11.60;99.90;;;;;;5112632;28;19912;-78
2022/06/06 05:56:55;;;;;;;;;;;11.60;99.90;;;;;;5094874;28;19959;-78
2022/06/06 05:59:38;;;;;;;;;;;11.70;99.90;;;;;;5112668;28;20262;-76
2022/06/06 06:02:19;;;;;;;;;;;11.70;99.90;;;;;;5113129;28;19912;-78
2022/06/06 06:04:57;;;;;;;;;;;11.70;99.90;;;;;;5112618;28;19911;-78
2022/06/06 06:07:25;;;;;;;;;;;11.70;99.90;;;;;;5112553;28;19908;-76
2022/06/06 06:09:57;;;;;;;;;;;11.70;99.90;;;;;;5112989;28;19911;-78
2022/06/06 06:12:23;;;;;;;;;;;11.70;99.90;;;;;;5116519;28;20276;-76
2022/06/06 06:14:54;;;;;;;;;;;11.80;99.90;;;;;;5098721;28;19908;-78
2022/06/06 06:17:23;;;;;;;;;;;11.90;99.90;;;;;;5117024;28;19916;-80
2022/06/06 06:20:01;;;;;;;;;;;11.90;99.90;;;;;;5116637;28;19927;-79
2022/06/06 06:22:28;;;;;;;;;;;11.90;99.90;;;;;;5116591;28;19958;-77
2022/06/06 06:24:56;;;;;;;;;;;11.90;99.90;;;;;;5116891;28;19919;-78
2022/06/06 06:27:23;;;;;;;;;;;11.90;99.90;;;;;;5116868;28;19915;-77
2022/06/06 06:29:49;;;;;;;;;;;12.00;99.90;;;;;;5116539;28;19908;-78
2022/06/06 06:32:33;;;;;;;;;;;12.00;99.90;;;;;;5116640;28;19907;-78
2022/06/06 06:35:13;;;;;;;;;;;12.00;99.90;;;;;;5116400;28;19908;-77
2022/06/06 06:37:59;;;;;;;;;;;12.10;99.90;;;;;;5116093;28;19908;-78
2022/06/06 06:40:36;;;;;;;;;;;12.10;99.90;;;;;;5073885;28;19965;-75
2022/06/06 06:43:07;;;;;;;;;;;12.10;99.90;;;;;;5098101;28;20007;-77
2022/06/06 06:45:36;;;;;;;;;;;12.30;99.90;;;;;;5115716;28;19919;-77
2022/06/06 06:48:07;;;;;;;;;;;12.30;99.90;;;;;;5116319;28;19908;-78
2022/06/06 06:50:36;;;;;;;;;;;12.40;99.90;;;;;;5115890;28;19908;-78
2022/06/06 06:53:09;;;;;;;;;;;12.50;99.90;;;;;;5116008;28;19912;-78
2022/06/06 06:55:50;;;;;;;;;;;12.60;99.90;;;;;;5115724;28;19907;-78
2022/06/06 06:58:15;;;;;;;;;;;12.60;99.90;;;;;;5116271;28;19908;-77
2022/06/06 07:00:50;;;;;;;;;;;12.70;99.90;;;;;;5115634;28;19907;-78
2022/06/06 07:09:15;;;;;;;;;;;12.80;99.90;;;;;;5115783;28;20382;-78
2022/06/06 07:11:47;;;;;;;;;;;12.90;99.90;;;;;;5115404;28;19911;-78
2022/06/06 07:14:21;;;;;;;;;;;13.00;99.90;;;;;;5116057;28;19907;-78
2022/06/06 07:16:49;;;;;;;;;;;13.00;99.90;;;;;;5097243;28;19960;-78
2022/06/06 07:19:17;;;;;;;;;;;13.00;99.90;;;;;;5115836;28;20341;-78
2022/06/06 07:21:45;;;;;;;;;;;13.00;99.90;;;;;;5114593;28;19915;-78
2022/06/06 07:24:12;;;;;;;;;;;13.00;99.90;;;;;;5115484;28;19915;-78
2022/06/06 07:26:39;;;;;;;;;;;13.10;99.90;;;;;;5115213;28;19908;-77
2022/06/06 07:29:06;;;;;;;;;;;13.10;99.90;;;;;;5115565;28;19907;-78
2022/06/06 07:31:34;;;;;;;;;;;13.10;99.90;;;;;;5114805;28;20352;-77
2022/06/06 07:34:00;;;;;;;;;;;13.10;99.90;;;;;;5115388;28;20006;-78
2022/06/06 07:36:29;;;;;;;;;;;13.10;99.90;;;;;;5115478;28;19981;-78
2022/06/06 07:39:09;;;;;;;;;;;13.10;99.90;;;;;;5115646;28;20010;-77
2022/06/06 07:41:47;;;;;;;;;;;13.20;99.90;;;;;;5114752;28;20268;-78
2022/06/06 07:44:24;;;;;;;;;;;13.10;99.90;;;;;;5115375;28;19996;-78
2022/06/06 07:46:57;;;;;;;;;;;13.20;99.90;;;;;;5114667;28;20357;-77
2022/06/06 07:49:27;;;;;;;;;;;13.30;99.90;;;;;;5115390;28;19984;-78
2022/06/06 07:52:05;;;;;;;;;;;13.30;99.90;;;;;;5115417;28;19914;-78
2022/06/06 07:55:09;;;;;;;;;;;13.30;99.90;;;;;;5114801;28;19919;-77
2022/06/06 07:57:56;;;;;;;;;;;13.30;99.90;;;;;;5035540;28;19913;-78
2022/06/06 08:00:25;;;;;;;;;;;13.30;99.90;;;;;;5033067;28;19974;-78
2022/06/06 08:02:56;;;;;;;;;;;13.30;99.90;;;;;;5083909;28;19934;-80
2022/06/06 08:05:28;;;;;;;;;;;13.30;99.90;;;;;;5115060;28;19919;-79
2022/06/06 08:08:00;;;;;;;;;;;13.30;99.90;;;;;;5114562;28;19907;-78
2022/06/06 08:10:28;;;;;;;;;;;13.30;99.90;;;;;;5114655;28;19912;-80
2022/06/06 08:13:12;;;;;;;;;;;13.30;99.90;;;;;;5114237;28;19915;-80
2022/06/06 08:15:50;;;;;;;;;;;13.40;99.90;;;;;;5114401;28;19953;-79
2022/06/06 08:18:34;;;;;;;;;;;13.30;99.90;;;;;;5114897;28;19907;-80
2022/06/06 08:21:03;;;;;;;;;;;13.40;99.90;;;;;;5115080;28;19920;-79
2022/06/06 08:23:32;;;;;;;;;;;13.30;99.90;;;;;;5114721;28;19912;-79
2022/06/06 08:25:59;;;;;;;;;;;13.40;99.90;;;;;;5114662;28;19955;-80
2022/06/06 08:28:25;;;;;;;;;;;13.30;99.90;;;;;;5114659;28;19911;-80
2022/06/06 08:30:51;;;;;;;;;;;13.30;99.90;;;;;;5114137;28;19958;-79
2022/06/06 08:33:16;;;;;;;;;;;13.40;99.90;;;;;;5114416;28;19908;-80
2022/06/06 08:35:54;;;;;;;;;;;13.40;99.90;;;;;;5113710;28;19915;-79
2022/06/06 08:38:28;;;;;;;;;;;13.40;99.90;;;;;;5114480;28;20011;-79
2022/06/06 08:41:12;;;;;;;;;;;13.50;99.90;;;;;;5113915;28;20318;-80
2022/06/06 08:43:47;;;;;;;;;;;13.50;99.90;;;;;;5095535;28;20403;-79
2022/06/06 08:46:28;;;;;;;;;;;13.50;99.90;;;;;;5114590;28;20372;-80
2022/06/06 08:50:44;;;;;;;;;;;13.50;99.90;;;;;;5116797;28;19908;-80
2022/06/06 08:52:00;;;;;;;;;;;13.50;99.90;;;;;;5128230;28;19915;-80
2022/06/06 08:54:40;;;;;;;;;;;13.60;99.90;;;;;;5116218;28;19908;-80
2022/06/06 08:57:09;;;;;;;;;;;13.60;99.90;;;;;;5114869;28;19912;-80
2022/06/06 08:59:54;;;;;;;;;;;13.60;99.90;;;;;;5113588;28;19915;-79
2022/06/06 09:02:29;;;;;;;;;;;13.50;99.90;;;;;;5113715;28;19912;-80
2022/06/06 09:05:23;;;;;;;;;;;13.50;99.90;;;;;;5113460;28;19981;-80
2022/06/06 09:08:07;;;;;;;;;;;13.50;99.90;;;;;;5113436;28;19907;-80
2022/06/06 09:10:39;;;;;;;;;;;13.50;99.90;;;;;;5095163;28;20318;-79
2022/06/06 09:13:14;;;;;;;;;;;13.50;99.90;;;;;;5113898;28;19907;-80
2022/06/06 09:15:39;;;;;;;;;;;13.50;99.90;;;;;;5113273;28;19907;-80
2022/06/06 09:18:05;;;;;;;;;;;13.50;99.90;;;;;;5113741;28;19908;-81
2022/06/06 09:20:31;;;;;;;;;;;13.50;99.90;;;;;;5113651;28;20310;-81
2022/06/06 09:23:08;;;;;;;;;;;13.50;99.90;;;;;;5112809;28;20407;-80
2022/06/06 09:25:36;;;;;;;;;;;13.50;99.90;;;;;;5113985;28;19934;-77
2022/06/06 09:28:18;;;;;;;;;;;13.60;99.90;;;;;;5113310;28;19914;-80
2022/06/06 09:31:02;;;;;;;;;;;13.50;99.90;;;;;;5113148;28;20002;-80
2022/06/06 09:33:31;;;;;;;;;;;13.50;99.90;;;;;;5113239;28;19908;-80
2022/06/06 09:36:18;;;;;;;;;;;13.50;99.90;;;;;;5113017;28;19989;-80
2022/06/06 09:38:49;;;;;;;;;;;13.60;99.90;;;;;;5112706;28;20299;-80
2022/06/06 09:41:21;;;;;;;;;;;13.70;99.90;;;;;;5113029;28;20349;-80
2022/06/06 09:44:19;;;;;;;;;;;13.80;99.90;;;;;;5112575;28;19911;-80
2022/06/06 09:46:47;;;;;;;;;;;13.80;99.90;;;;;;5066920;28;19916;-81
2022/06/06 09:49:13;;;;;;;;;;;13.80;99.90;;;;;;5113430;28;19950;-80
2022/06/06 09:51:44;;;;;;;;;;;13.80;99.90;;;;;;5112876;28;19940;-80
2022/06/06 10:00:21;;;;;;;;;;;14.00;99.90;;;;;;5113244;28;19915;-81
2022/06/06 10:02:47;;;;;;;;;;;14.10;99.90;;;;;;5112709;28;20361;-80
2022/06/06 10:05:12;;;;;;;;;;;14.10;99.90;;;;;;5113345;28;19954;-80
2022/06/06 10:07:38;;;;;;;;;;;14.10;99.90;;;;;;5113192;28;19912;-77
2022/06/06 10:10:03;;;;;;;;;;;14.20;99.90;;;;;;5112944;28;19908;-80
2022/06/06 10:12:47;;;;;;;;;;;14.10;99.90;;;;;;5112712;28;19954;-81
2022/06/06 10:15:13;;;;;;;;;;;14.10;99.90;;;;;;5113049;28;19961;-80
2022/06/06 10:17:57;;;;;;;;;;;14.00;99.90;;;;;;5112831;28;19907;-77
2022/06/06 10:20:38;;;;;;;;;;;14.00;99.90;;;;;;5113059;28;19965;-80
2022/06/06 10:23:12;;;;;;;;;;;14.10;99.90;;;;;;5112879;28;19912;-80
2022/06/06 10:25:56;;;;;;;;;;;14.20;99.90;;;;;;5113305;28;19911;-77
2022/06/06 10:28:37;;;;;;;;;;;14.20;99.90;;;;;;5112767;28;19908;-81
2022/06/06 10:31:03;;;;;;;;;;;14.30;99.90;;;;;;5112560;28;19960;-80
2022/06/06 10:33:55;;;;;;;;;;;14.40;99.90;;;;;;5112785;28;19908;-80
2022/06/06 10:36:20;;;;;;;;;;;14.50;99.90;;;;;;5112958;28;20372;-80
2022/06/06 10:39:05;;;;;;;;;;;14.60;99.90;;;;;;5111982;28;19908;-81
2022/06/06 10:41:33;;;;;;;;;;;14.80;99.90;;;;;;5112723;28;19912;-80
2022/06/06 10:44:37;;;;;;;;;;;14.90;99.90;;;;;;5112031;28;19943;-81
2022/06/06 10:47:11;;;;;;;;;;;15.00;99.90;;;;;;5029111;28;19913;-80
2022/06/06 10:49:53;;;;;;;;;;;15.10;99.90;;;;;;5029891;28;19944;-79
2022/06/06 10:52:19;;;;;;;;;;;15.40;99.90;;;;;;5030316;28;19913;-80
2022/06/06 10:54:44;;;;;;;;;;;15.60;99.90;;;;;;5029280;28;19909;-78
2022/06/06 10:57:22;;;;;;;;;;;15.50;99.90;;;;;;5029946;28;19994;-78
2022/06/06 11:00:06;;;;;;;;;;;15.60;99.90;;;;;;5032835;28;19996;-77
2022/06/06 11:02:37;;;;;;;;;;;15.50;99.90;;;;;;5033339;28;19923;-80
2022/06/06 11:05:11;;;;;;;;;;;15.60;99.90;;;;;;5032653;28;19920;-81
2022/06/06 11:07:38;;;;;;;;;;;15.40;99.90;;;;;;5033243;28;19915;-80
2022/06/06 11:10:23;;;;;;;;;;;15.50;99.90;;;;;;5032650;28;19910;-79
2022/06/06 11:12:55;;;;;;;;;;;15.40;99.90;;;;;;5032452;28;19916;-80
2022/06/06 11:15:20;;;;;;;;;;;15.50;99.90;;;;;;5033003;28;19913;-80
2022/06/06 11:18:00;;;;;;;;;;;15.40;99.90;;;;;;5072973;28;19933;-81
2022/06/06 11:20:45;;;;;;;;;;;15.50;99.90;;;;;;5115992;28;19919;-80
2022/06/06 11:23:15;;;;;;;;;;;15.50;99.90;;;;;;5115558;28;19915;-80
2022/06/06 11:25:59;;;;;;;;;;;15.60;99.90;;;;;;5116467;28;19961;-78
2022/06/06 11:28:25;;;;;;;;;;;15.70;99.90;;;;;;5115627;28;19951;-81
2022/06/06 11:31:09;;;;;;;;;;;15.70;99.90;;;;;;5115108;28;19934;-80
2022/06/06 11:33:37;;;;;;;;;;;15.60;99.90;;;;;;5115655;28;19950;-79
2022/06/06 11:36:16;;;;;;;;;;;15.70;99.90;;;;;;5114804;28;20438;-78
2022/06/06 11:38:46;;;;;;;;;;;15.80;99.90;;;;;;5115243;28;19976;-76
2022/06/06 11:41:29;;;;;;;;;;;15.80;99.90;;;;;;5115368;28;19908;-78
2022/06/06 11:44:10;;;;;;;;;;;15.60;99.90;;;;;;5114700;28;19999;-80
2022/06/06 11:46:36;;;;;;;;;;;15.70;99.90;;;;;;5115780;28;20275;-80
2022/06/06 11:49:20;;;;;;;;;;;15.60;99.90;;;;;;5114535;28;19907;-77
2022/06/06 11:51:58;;;;;;;;;;;15.80;99.90;;;;;;5114984;28;19907;-76
2022/06/06 11:54:27;;;;;;;;;;;15.80;99.90;;;;;;5115139;28;19961;-78
2022/06/06 11:57:04;;;;;;;;;;;15.60;99.90;;;;;;5114386;28;19908;-78
2022/06/06 11:59:33;;;;;;;;;;;15.60;99.90;;;;;;5126753;28;19922;-77
2022/06/06 12:02:01;;;;;;;;;;;15.70;99.90;;;;;;5125183;28;19915;-78
2022/06/06 12:04:27;;;;;;;;;;;15.80;99.90;;;;;;5116268;28;19920;-78
2022/06/06 12:07:01;;;;;;;;;;;15.90;99.90;;;;;;5114728;28;19991;-77
2022/06/06 12:09:45;;;;;;;;;;;16.00;99.90;;;;;;5114668;28;19908;-78
2022/06/06 12:12:18;;;;;;;;;;;16.20;99.90;;;;;;5114645;28;19957;-78
2022/06/06 12:15:02;;;;;;;;;;;16.20;99.90;;;;;;5096126;28;19914;-77
2022/06/06 12:17:31;;;;;;;;;;;16.20;99.90;;;;;;5114754;28;19908;-79
2022/06/06 12:20:12;;;;;;;;;;;16.30;99.90;;;;;;5113707;28;20324;-79
2022/06/06 12:22:56;;;;;;;;;;;16.10;99.90;;;;;;5114597;28;20014;-79
2022/06/06 12:25:25;;;;;;;;;;;16.00;99.90;;;;;;5114596;28;19918;-79
2022/06/06 12:28:01;;;;;;;;;;;15.90;99.90;;;;;;5114154;28;19935;-78
2022/06/06 12:30:50;;;;;;;;;;;15.90;99.90;;;;;;5114624;28;19915;-79
2022/06/06 12:33:18;;;;;;;;;;;15.70;99.90;;;;;;5103359;28;20019;-79
2022/06/06 12:35:48;;;;;;;;;;;15.70;99.90;;;;;;5114396;28;19912;-79
2022/06/06 12:38:31;;;;;;;;;;;15.70;99.90;;;;;;5114466;28;20003;-79
2022/06/06 12:41:02;;;;;;;;;;;15.80;99.90;;;;;;5113861;28;19950;-79
2022/06/06 12:43:28;;;;;;;;;;;15.90;99.90;;;;;;5114239;28;19919;-79
2022/06/06 12:46:14;;;;;;;;;;;16.10;99.90;;;;;;5113641;28;19911;-78
2022/06/06 12:48:45;;;;;;;;;;;16.20;99.90;;;;;;5113443;28;19939;-79
2022/06/06 12:51:18;;;;;;;;;;;16.20;99.90;;;;;;5113610;28;19965;-79
2022/06/06 12:53:56;;;;;;;;;;;16.30;99.90;;;;;;5114028;28;19907;-79
2022/06/06 12:56:43;;;;;;;;;;;16.40;99.90;;;;;;5114443;28;19908;-79
2022/06/06 12:59:09;;;;;;;;;;;16.40;99.90;;;;;;5115113;28;19928;-79
2022/06/06 13:01:49;;;;;;;;;;;16.30;99.90;;;;;;5113957;28;19911;-79
2022/06/06 13:04:24;;;;;;;;;;;16.30;99.90;;;;;;5095655;28;19915;-79
2022/06/06 13:07:08;;;;;;;;;;;16.50;99.90;;;;;;5113685;28;19908;-77
2022/06/06 13:09:52;;;;;;;;;;;16.70;99.90;;;;;;5113891;28;19908;-79
2022/06/06 13:12:21;;;;;;;;;;;17.00;99.90;;;;;;5114182;28;19930;-80
2022/06/06 13:14:52;;;;;;;;;;;16.90;99.90;;;;;;5113558;28;19912;-79
2022/06/06 13:17:25;;;;;;;;;;;16.90;99.90;;;;;;5113748;28;19953;-79
2022/06/06 13:19:57;;;;;;;;;;;16.60;99.90;;;;;;5112094;28;20307;-77
2022/06/06 13:22:29;;;;;;;;;;;16.70;99.90;;;;;;5113339;28;19911;-80
2022/06/06 13:25:13;;;;;;;;;;;16.60;99.90;;;;;;5113016;28;19918;-79
2022/06/06 13:27:59;;;;;;;;;;;16.50;99.90;;;;;;5113224;28;19908;-79
2022/06/06 13:30:24;;;;;;;;;;;16.30;99.90;;;;;;5113703;28;19908;-79
2022/06/06 13:33:09;;;;;;;;;;;15.90;99.90;;;;;;5113291;28;19908;-77
2022/06/06 13:35:49;;;;;;;;;;;15.90;99.90;;;;;;5113415;28;19908;-78
2022/06/06 13:38:27;;;;;;;;;;;16.10;99.90;;;;;;5113063;28;19915;-78
2022/06/06 13:41:02;;;;;;;;;;;16.30;99.90;;;;;;5112811;28;19908;-77
2022/06/06 13:43:36;;;;;;;;;;;16.50;99.90;;;;;;5113265;28;20049;-79
2022/06/06 13:46:21;;;;;;;;;;;16.60;99.90;;;;;;5112597;28;19919;-79
2022/06/06 13:48:46;;;;;;;;;;;16.80;99.90;;;;;;5113544;28;19912;-80
2022/06/06 13:51:30;;;;;;;;;;;16.80;99.90;;;;;;5112905;28;20318;-79
2022/06/06 13:54:00;;;;;;;;;;;16.90;99.90;;;;;;5112396;28;19998;-78
2022/06/06 13:56:31;;;;;;;;;;;17.00;99.90;;;;;;5112885;28;19915;-80
2022/06/06 13:59:09;;;;;;;;;;;17.00;99.90;;;;;;5112970;28;19908;-80
2022/06/06 14:01:57;;;;;;;;;;;17.00;99.90;;;;;;5113157;28;19908;-79
2022/06/06 14:04:38;;;;;;;;;;;17.00;99.90;;;;;;5113225;28;20327;-80
2022/06/06 14:07:04;;;;;;;;;;;17.00;99.90;;;;;;5112573;28;19953;-79
2022/06/06 14:09:37;;;;;;;;;;;17.00;99.90;;;;;;5112922;28;19908;-78
2022/06/06 14:12:26;;;;;;;;;;;16.90;99.90;;;;;;5112432;28;19908;-80
2022/06/06 14:14:53;;;;;;;;;;;17.00;99.90;;;;;;5112989;28;19960;-79
2022/06/06 14:17:24;;;;;;;;;;;17.00;99.90;;;;;;5112584;28;19912;-79
2022/06/06 14:19:53;;;;;;;;;;;17.10;99.90;;;;;;5113037;28;19920;-79
2022/06/06 14:22:28;;;;;;;;;;;17.10;99.90;;;;;;5112934;28;19911;-79
2022/06/06 14:24:54;;;;;;;;;;;17.20;99.90;;;;;;5112966;28;20002;-76
2022/06/06 14:27:23;;;;;;;;;;;17.20;99.90;;;;;;5112817;28;19908;-79
2022/06/06 14:29:52;;;;;;;;;;;17.30;99.90;;;;;;5112590;28;20288;-79
2022/06/06 14:32:22;;;;;;;;;;;17.40;99.90;;;;;;5114020;28;19908;-78
2022/06/06 14:34:49;;;;;;;;;;;17.40;99.90;;;;;;5116736;28;20252;-79
2022/06/06 14:37:19;;;;;;;;;;;17.40;99.90;;;;;;5116191;28;19965;-79
2022/06/06 14:39:50;;;;;;;;;;;17.30;99.90;;;;;;5116357;28;19969;-79
2022/06/06 14:42:17;;;;;;;;;;;17.30;99.90;;;;;;5116143;28;19915;-79
2022/06/06 14:44:56;;;;;;;;;;;17.20;99.90;;;;;;5116733;28;19957;-79
2022/06/06 14:47:23;;;;;;;;;;;17.10;99.90;;;;;;5116053;28;19939;-78
2022/06/06 14:52:36;;;;;;;;;;;17.30;99.90;;;;;;5116449;28;19915;-79
2022/06/06 14:55:02;;;;;;;;;;;17.40;99.90;;;;;;5116230;28;19961;-79
2022/06/06 14:57:30;;;;;;;;;;;17.60;99.90;;;;;;5116545;28;19908;-79
2022/06/06 14:59:58;;;;;;;;;;;17.90;99.90;;;;;;5116118;28;19995;-77
2022/06/06 15:02:27;;;;;;;;;;;18.20;99.90;;;;;;5116098;28;20303;-80
2022/06/06 15:05:13;;;;;;;;;;;18.40;99.90;;;;;;5116382;28;19912;-79
2022/06/06 15:07:44;;;;;;;;;;;18.60;99.90;;;;;;5116183;28;19913;-80